createdAt,value
2023-01-20T00:00:04.549Z,157.55
2023-01-20T00:00:27.329Z,113.35
2023-01-20T00:00:50.166Z,115.47
2023-01-20T00:01:13.088Z,113.70
2023-01-20T00:01:37.469Z,107.10
2023-01-20T00:02:00.212Z,87.55
2023-01-20T00:02:23.098Z,99.28
2023-01-20T00:02:45.989Z,72.43
2023-01-20T00:03:08.867Z,99.60
2023-01-20T00:03:31.766Z,105.45
2023-01-20T00:03:54.866Z,117.28
2023-01-20T00:04:20.504Z,133.00
2023-01-20T00:04:43.210Z,114.47
2023-01-20T00:05:08.043Z,102.13
2023-01-20T00:05:30.864Z,166.25
2023-01-20T00:05:53.738Z,163.90
2023-01-20T00:06:16.498Z,148.82
2023-01-20T00:06:39.278Z,142.52
2023-01-20T00:07:01.998Z,111.00
2023-01-20T00:07:24.993Z,107.43
2023-01-20T00:07:47.693Z,112.53
2023-01-20T00:08:10.414Z,94.68
2023-01-20T00:08:33.134Z,130.82
2023-01-20T00:08:56.698Z,144.43
2023-01-20T00:09:19.519Z,109.70
2023-01-20T00:09:42.248Z,138.85
2023-01-20T00:10:07.238Z,176.85
2023-01-20T00:10:29.975Z,203.52
2023-01-20T00:10:52.783Z,213.05
2023-01-20T00:11:15.567Z,158.07
2023-01-20T00:11:38.413Z,243.88
2023-01-20T00:12:01.277Z,245.48
2023-01-20T00:12:29.930Z,223.32
2023-01-20T00:12:54.300Z,159.60
2023-01-20T00:13:17.053Z,177.95
2023-01-20T00:13:42.274Z,224.95
2023-01-20T00:14:05.224Z,217.73
2023-01-20T00:14:28.179Z,210.25
2023-01-20T00:14:53.643Z,234.75
2023-01-20T00:15:16.597Z,271.42
2023-01-20T00:15:39.455Z,180.25
2023-01-20T00:16:02.753Z,190.68
2023-01-20T00:16:25.587Z,180.95
2023-01-20T00:16:48.277Z,122.68
2023-01-20T00:17:11.209Z,181.95
2023-01-20T00:17:34.083Z,180.57
2023-01-20T00:17:58.283Z,163.20
2023-01-20T00:18:20.984Z,149.20
2023-01-20T00:18:43.712Z,156.02
2023-01-20T00:19:06.820Z,174.43
2023-01-20T00:19:32.049Z,209.75
2023-01-20T00:19:54.803Z,135.45
2023-01-20T00:20:18.031Z,238.30
2023-01-20T00:20:40.838Z,176.35
2023-01-20T00:21:04.516Z,174.30
2023-01-20T00:21:27.390Z,283.33
2023-01-20T00:21:50.181Z,214.57
2023-01-20T00:22:13.120Z,177.27
2023-01-20T00:22:40.105Z,181.68
2023-01-20T00:23:02.932Z,172.85
2023-01-20T00:23:25.679Z,274.13
2023-01-20T00:23:48.604Z,197.88
2023-01-20T00:24:11.452Z,228.45
2023-01-20T00:24:34.404Z,159.70
2023-01-20T00:24:57.299Z,158.15
2023-01-20T00:25:20.933Z,267.92
2023-01-20T00:25:43.810Z,212.93
2023-01-20T00:26:07.067Z,223.65
2023-01-20T00:26:29.918Z,215.15
2023-01-20T00:26:52.699Z,118.40
2023-01-20T00:27:16.152Z,174.82
2023-01-20T00:27:38.994Z,122.90
2023-01-20T00:28:03.239Z,129.90
2023-01-20T00:28:26.027Z,108.47
2023-01-20T00:28:48.854Z,84.32
2023-01-20T00:29:12.633Z,104.55
2023-01-20T00:29:35.422Z,154.95
2023-01-20T00:29:58.311Z,142.30
2023-01-20T00:30:21.097Z,147.90
2023-01-20T00:30:43.860Z,136.13
2023-01-20T00:31:14.011Z,179.15
2023-01-20T00:31:36.923Z,185.60
2023-01-20T00:31:59.814Z,169.88
2023-01-20T00:32:22.559Z,116.22
2023-01-20T00:32:45.704Z,106.15
2023-01-20T00:33:08.501Z,124.75
2023-01-20T00:33:31.245Z,116.50
2023-01-20T00:33:55.006Z,160.52
2023-01-20T00:34:17.770Z,88.40
2023-01-20T00:34:40.499Z,126.55
2023-01-20T00:35:03.250Z,149.50
2023-01-20T00:35:25.974Z,154.25
2023-01-20T00:35:48.791Z,133.10
2023-01-20T00:36:12.007Z,130.43
2023-01-20T00:36:35.340Z,149.18
2023-01-20T00:36:58.101Z,126.60
2023-01-20T00:37:20.849Z,117.05
2023-01-20T00:37:43.753Z,178.13
2023-01-20T00:38:06.565Z,230.65
2023-01-20T00:38:29.292Z,189.13
2023-01-20T00:38:52.181Z,133.25
2023-01-20T00:39:15.045Z,447.13
2023-01-20T00:39:37.795Z,219.48
2023-01-20T00:40:00.506Z,142.88
2023-01-20T00:40:23.214Z,98.15
2023-01-20T00:40:45.930Z,196.82
2023-01-20T00:41:08.889Z,179.68
2023-01-20T00:41:31.650Z,239.40
2023-01-20T00:41:54.366Z,244.73
2023-01-20T00:42:17.174Z,205.30
2023-01-20T00:42:39.912Z,129.38
2023-01-20T00:43:04.165Z,171.73
2023-01-20T00:43:27.885Z,180.85
2023-01-20T00:43:50.655Z,219.95
2023-01-20T00:44:13.454Z,156.20
2023-01-20T00:44:37.009Z,155.10
2023-01-20T00:44:59.770Z,123.32
2023-01-20T00:45:22.566Z,149.35
2023-01-20T00:45:45.404Z,84.18
2023-01-20T00:46:08.220Z,86.00
2023-01-20T00:46:31.065Z,121.68
2023-01-20T00:46:53.936Z,124.28
2023-01-20T00:47:16.724Z,164.82
2023-01-20T00:47:39.508Z,101.43
2023-01-20T00:48:02.260Z,122.78
2023-01-20T00:48:25.009Z,185.88
2023-01-20T00:48:47.850Z,229.18
2023-01-20T00:49:10.615Z,113.65
2023-01-20T00:49:33.413Z,125.95
2023-01-20T00:49:56.274Z,82.53
2023-01-20T00:50:19.189Z,73.75
2023-01-20T00:50:42.305Z,98.32
2023-01-20T00:51:05.415Z,136.13
2023-01-20T00:51:28.166Z,118.68
2023-01-20T00:51:50.913Z,86.72
2023-01-20T00:52:13.635Z,76.97
2023-01-20T00:52:36.362Z,103.63
2023-01-20T00:52:59.080Z,79.57
2023-01-20T00:53:21.835Z,62.70
2023-01-20T00:53:44.575Z,95.45
2023-01-20T00:54:07.289Z,232.88
2023-01-20T00:54:30.015Z,167.48
2023-01-20T00:54:52.730Z,66.35
2023-01-20T00:55:15.969Z,156.07
2023-01-20T00:55:38.904Z,154.23
2023-01-20T00:56:01.784Z,214.43
2023-01-20T00:56:24.645Z,265.67
2023-01-20T00:56:47.449Z,239.68
2023-01-20T00:57:10.244Z,233.82
2023-01-20T00:57:33.111Z,270.65
2023-01-20T00:57:55.835Z,207.05
2023-01-20T00:58:20.074Z,297.13
2023-01-20T00:58:44.373Z,239.35
2023-01-20T00:59:09.255Z,88.82
2023-01-20T00:59:32.002Z,252.23
2023-01-20T00:59:54.733Z,326.40
2023-01-20T01:00:19.283Z,105.85
2023-01-20T01:00:42.130Z,93.70
2023-01-20T01:01:05.281Z,124.30
2023-01-20T01:01:28.144Z,79.03
2023-01-20T01:01:50.999Z,142.10
2023-01-20T01:02:13.952Z,157.63
2023-01-20T01:02:38.953Z,83.68
2023-01-20T01:03:01.759Z,100.45
2023-01-20T01:03:24.770Z,105.07
2023-01-20T01:03:47.483Z,98.38
2023-01-20T01:04:10.329Z,75.22
2023-01-20T01:04:33.126Z,61.88
2023-01-20T01:04:55.844Z,72.10
2023-01-20T01:05:18.664Z,63.97
2023-01-20T01:05:41.563Z,72.97
2023-01-20T01:06:12.253Z,77.30
2023-01-20T01:06:35.075Z,74.30
2023-01-20T01:06:57.845Z,140.00
2023-01-20T01:07:20.744Z,117.32
2023-01-20T01:07:43.876Z,73.28
2023-01-20T01:08:06.716Z,59.33
2023-01-20T01:08:29.397Z,56.50
2023-01-20T01:08:53.287Z,64.68
2023-01-20T01:09:16.074Z,79.72
2023-01-20T01:09:38.734Z,86.22
2023-01-20T01:10:01.457Z,71.15
2023-01-20T01:10:24.224Z,64.10
2023-01-20T01:10:46.986Z,57.30
2023-01-20T01:11:10.489Z,77.57
2023-01-20T01:11:33.239Z,115.65
2023-01-20T01:11:56.059Z,68.18
2023-01-20T01:12:18.769Z,64.75
2023-01-20T01:12:41.518Z,83.45
2023-01-20T01:13:04.523Z,78.22
2023-01-20T01:13:28.580Z,67.90
2023-01-20T01:13:51.371Z,75.82
2023-01-20T01:14:14.251Z,99.00
2023-01-20T01:14:36.988Z,76.40
2023-01-20T01:14:59.699Z,66.20
2023-01-20T01:15:22.454Z,63.67
2023-01-20T01:15:50.030Z,62.40
2023-01-20T01:16:13.302Z,90.30
2023-01-20T01:16:36.385Z,116.13
2023-01-20T01:16:59.129Z,97.93
2023-01-20T01:17:23.903Z,89.53
2023-01-20T01:17:46.733Z,113.50
2023-01-20T01:18:09.509Z,128.25
2023-01-20T01:18:32.214Z,102.57
2023-01-20T01:18:55.078Z,86.60
2023-01-20T01:19:18.899Z,128.93
2023-01-20T01:19:41.728Z,265.17
2023-01-20T01:20:05.291Z,398.17
2023-01-20T01:20:28.988Z,261.08
2023-01-20T01:20:51.739Z,151.68
2023-01-20T01:21:16.185Z,93.88
2023-01-20T01:21:39.175Z,107.00
2023-01-20T01:22:02.030Z,159.05
2023-01-20T01:22:24.821Z,296.75
2023-01-20T01:22:47.619Z,271.75
2023-01-20T01:23:10.464Z,196.70
2023-01-20T01:23:33.248Z,62.30
2023-01-20T01:23:56.013Z,70.60
2023-01-20T01:24:18.805Z,67.93
2023-01-20T01:24:44.664Z,74.95
2023-01-20T01:25:08.023Z,66.13
2023-01-20T01:25:31.093Z,86.25
2023-01-20T01:25:53.858Z,67.65
2023-01-20T01:26:17.694Z,81.75
2023-01-20T01:26:40.405Z,91.55
2023-01-20T01:27:04.566Z,82.28
2023-01-20T01:27:28.547Z,117.50
2023-01-20T01:27:51.290Z,75.78
2023-01-20T01:28:14.047Z,47.35
2023-01-20T01:28:38.273Z,47.75
2023-01-20T01:29:03.553Z,49.67
2023-01-20T01:29:26.389Z,42.38
2023-01-20T01:29:49.252Z,67.35
2023-01-20T01:30:13.008Z,107.03
2023-01-20T01:30:35.790Z,53.58
2023-01-20T01:31:01.523Z,77.53
2023-01-20T01:31:24.517Z,75.18
2023-01-20T01:31:50.038Z,63.15
2023-01-20T01:32:12.790Z,48.70
2023-01-20T01:32:35.552Z,44.60
2023-01-20T01:32:58.260Z,56.83
2023-01-20T01:33:21.028Z,66.43
2023-01-20T01:33:43.860Z,58.75
2023-01-20T01:34:06.628Z,56.25
2023-01-20T01:34:29.376Z,43.97
2023-01-20T01:34:52.099Z,47.90
2023-01-20T01:35:15.265Z,61.30
2023-01-20T01:35:38.507Z,56.30
2023-01-20T01:36:01.963Z,46.65
2023-01-20T01:36:24.970Z,46.50
2023-01-20T01:36:48.209Z,48.00
2023-01-20T01:37:11.289Z,47.85
2023-01-20T01:37:34.071Z,53.92
2023-01-20T01:37:56.832Z,46.50
2023-01-20T01:38:19.665Z,54.50
2023-01-20T01:38:42.508Z,52.78
2023-01-20T01:39:05.204Z,56.67
2023-01-20T01:39:28.834Z,63.85
2023-01-20T01:39:54.089Z,62.53
2023-01-20T01:40:17.326Z,54.03
2023-01-20T01:40:40.166Z,53.42
2023-01-20T01:41:02.933Z,59.65
2023-01-20T01:41:25.819Z,66.50
2023-01-20T01:41:48.643Z,57.45
2023-01-20T01:42:12.347Z,54.70
2023-01-20T01:42:35.053Z,70.50
2023-01-20T01:42:57.852Z,93.90
2023-01-20T01:43:24.574Z,68.38
2023-01-20T01:44:03.572Z,63.30
2023-01-20T01:44:28.059Z,52.97
2023-01-20T01:45:25.082Z,60.35
2023-01-20T01:45:48.000Z,50.22
2023-01-20T01:46:10.833Z,55.40
2023-01-20T01:46:33.557Z,55.85
2023-01-20T01:46:56.322Z,56.50
2023-01-20T01:47:19.291Z,38.28
2023-01-20T01:47:43.134Z,39.03
2023-01-20T01:48:07.507Z,40.38
2023-01-20T01:48:32.053Z,36.33
2023-01-20T01:48:54.889Z,35.67
2023-01-20T01:49:19.699Z,35.45
2023-01-20T01:49:42.398Z,38.47
2023-01-20T01:50:06.654Z,36.42
2023-01-20T01:50:33.182Z,35.72
2023-01-20T01:50:58.259Z,43.53
2023-01-20T01:51:22.269Z,43.17
2023-01-20T01:51:47.020Z,38.55
2023-01-20T01:52:09.824Z,43.55
2023-01-20T01:52:32.541Z,120.30
2023-01-20T01:52:56.341Z,96.00
2023-01-20T01:53:19.050Z,102.68
2023-01-20T01:53:44.355Z,83.13
2023-01-20T01:54:16.999Z,48.33
2023-01-20T01:54:40.625Z,95.05
2023-01-20T01:55:03.453Z,86.65
2023-01-20T01:55:28.207Z,45.50
2023-01-20T01:55:52.506Z,58.08
2023-01-20T01:56:17.827Z,47.03
2023-01-20T01:56:41.847Z,47.60
2023-01-20T01:57:04.816Z,43.95
2023-01-20T01:57:27.502Z,83.15
2023-01-20T01:57:50.256Z,60.72
2023-01-20T01:58:15.803Z,46.58
2023-01-20T01:58:40.043Z,42.53
2023-01-20T01:59:04.217Z,42.72
2023-01-20T01:59:27.032Z,44.78
2023-01-20T01:59:49.798Z,59.13
2023-01-20T02:00:13.126Z,57.10
2023-01-20T02:00:35.945Z,44.83
2023-01-20T02:00:58.908Z,71.47
2023-01-20T02:01:21.960Z,94.55
2023-01-20T02:01:46.958Z,51.55
2023-01-20T02:02:10.125Z,49.70
2023-01-20T02:02:32.969Z,40.17
2023-01-20T02:02:55.765Z,39.40
2023-01-20T02:03:18.671Z,58.60
2023-01-20T02:03:44.815Z,39.22
2023-01-20T02:04:09.993Z,48.83
2023-01-20T02:04:34.113Z,58.53
2023-01-20T02:04:56.824Z,48.63
2023-01-20T02:05:19.634Z,36.85
2023-01-20T02:05:42.502Z,47.38
2023-01-20T02:06:05.640Z,40.60
2023-01-20T02:06:32.645Z,49.75
2023-01-20T02:06:56.739Z,43.35
2023-01-20T02:07:20.257Z,47.88
2023-01-20T02:07:43.590Z,40.85
2023-01-20T02:08:07.139Z,58.83
2023-01-20T02:08:29.849Z,50.08
2023-01-20T02:08:52.647Z,49.00
2023-01-20T02:09:15.484Z,60.00
2023-01-20T02:09:38.187Z,44.63
2023-01-20T02:10:01.510Z,43.35
2023-01-20T02:10:24.541Z,40.75
2023-01-20T02:10:47.275Z,54.97
2023-01-20T02:11:10.031Z,44.90
2023-01-20T02:11:35.633Z,58.08
2023-01-20T02:12:01.009Z,45.75
2023-01-20T02:12:23.854Z,42.10
2023-01-20T02:12:49.525Z,43.80
2023-01-20T02:13:12.277Z,52.13
2023-01-20T02:13:35.008Z,50.83
2023-01-20T02:13:58.725Z,52.85
2023-01-20T02:14:25.295Z,50.95
2023-01-20T02:14:49.043Z,54.47
2023-01-20T02:15:12.181Z,45.15
2023-01-20T02:15:41.120Z,37.97
2023-01-20T02:16:08.355Z,49.50
2023-01-20T02:16:36.218Z,58.03
2023-01-20T02:17:02.252Z,43.75
2023-01-20T02:17:27.174Z,59.95
2023-01-20T02:18:01.968Z,48.42
2023-01-20T02:18:32.807Z,36.67
2023-01-20T02:19:02.480Z,38.15
2023-01-20T02:20:00.167Z,43.33
2023-01-20T02:20:50.891Z,32.30
2023-01-20T02:21:52.858Z,37.50
2023-01-20T02:22:21.644Z,34.75
2023-01-20T02:22:45.689Z,33.85
2023-01-20T02:23:10.778Z,32.53
2023-01-20T02:23:44.424Z,36.08
2023-01-20T02:24:33.934Z,43.92
2023-01-20T02:25:33.272Z,35.85
2023-01-20T02:26:20.879Z,39.65
2023-01-20T02:26:52.521Z,35.88
2023-01-20T02:27:19.885Z,38.35
2023-01-20T02:28:23.856Z,36.80
2023-01-20T02:28:58.423Z,31.45
2023-01-20T02:29:39.224Z,34.13
2023-01-20T02:30:32.073Z,30.73
2023-01-20T02:31:33.067Z,38.05
2023-01-20T02:32:26.580Z,36.08
2023-01-20T02:32:50.728Z,43.58
2023-01-20T02:33:13.683Z,37.67
2023-01-20T02:33:37.278Z,36.30
2023-01-20T02:34:01.129Z,34.85
2023-01-20T02:34:26.311Z,42.60
2023-01-20T02:34:52.332Z,37.03
2023-01-20T02:35:20.142Z,30.10
2023-01-20T02:35:44.835Z,31.55
2023-01-20T02:36:09.149Z,34.50
2023-01-20T02:36:33.922Z,35.40
2023-01-20T02:36:57.940Z,31.02
2023-01-20T02:37:24.010Z,39.17
2023-01-20T02:37:48.645Z,40.42
2023-01-20T02:38:16.182Z,34.33
2023-01-20T02:38:42.058Z,34.78
2023-01-20T02:39:05.968Z,31.77
2023-01-20T02:39:31.208Z,32.40
2023-01-20T02:40:01.082Z,36.20
2023-01-20T02:40:28.176Z,29.02
2023-01-20T02:40:54.601Z,30.92
2023-01-20T02:41:20.706Z,30.88
2023-01-20T02:41:46.995Z,53.55
2023-01-20T02:42:10.894Z,38.83
2023-01-20T02:42:41.522Z,34.22
2023-01-20T02:43:09.115Z,33.40
2023-01-20T02:43:34.772Z,28.65
2023-01-20T02:43:59.700Z,34.72
2023-01-20T02:44:25.313Z,39.08
2023-01-20T02:44:51.393Z,32.60
2023-01-20T02:45:17.753Z,31.42
2023-01-20T02:45:45.506Z,35.00
2023-01-20T02:46:11.323Z,34.53
2023-01-20T02:46:36.348Z,37.72
2023-01-20T02:47:01.542Z,60.22
2023-01-20T02:47:27.689Z,44.97
2023-01-20T02:47:52.729Z,40.72
2023-01-20T02:48:20.058Z,35.95
2023-01-20T02:48:44.675Z,38.03
2023-01-20T02:49:10.370Z,43.70
2023-01-20T02:49:34.603Z,58.83
2023-01-20T02:49:59.456Z,59.92
2023-01-20T02:50:23.343Z,53.75
2023-01-20T02:50:48.971Z,47.72
2023-01-20T02:51:13.654Z,47.08
2023-01-20T02:51:40.432Z,65.47
2023-01-20T02:52:06.976Z,55.60
2023-01-20T02:52:31.373Z,66.05
2023-01-20T02:52:55.815Z,52.88
2023-01-20T02:53:18.569Z,50.60
2023-01-20T02:53:44.007Z,49.33
2023-01-20T02:54:08.375Z,44.42
2023-01-20T02:54:32.362Z,45.90
2023-01-20T02:54:57.033Z,55.88
2023-01-20T02:55:24.483Z,51.45
2023-01-20T02:55:47.916Z,48.20
2023-01-20T02:56:10.746Z,49.90
2023-01-20T02:56:33.509Z,57.97
2023-01-20T02:56:56.490Z,113.90
2023-01-20T02:57:21.952Z,151.68
2023-01-20T02:57:47.966Z,78.18
2023-01-20T02:58:13.535Z,63.13
2023-01-20T02:58:39.784Z,56.60
2023-01-20T02:59:03.708Z,59.47
2023-01-20T02:59:29.347Z,58.00
2023-01-20T02:59:53.370Z,52.85
2023-01-20T03:00:18.328Z,54.53
2023-01-20T03:00:43.940Z,67.80
2023-01-20T03:01:08.636Z,48.05
2023-01-20T03:01:33.737Z,57.08
2023-01-20T03:01:58.633Z,78.38
2023-01-20T03:02:23.388Z,62.05
2023-01-20T03:02:48.206Z,46.13
2023-01-20T03:03:12.783Z,48.30
2023-01-20T03:03:37.251Z,78.10
2023-01-20T03:04:01.092Z,75.53
2023-01-20T03:04:25.299Z,56.53
2023-01-20T03:04:49.356Z,42.38
2023-01-20T03:05:14.866Z,42.60
2023-01-20T03:05:40.255Z,50.83
2023-01-20T03:06:04.382Z,46.22
2023-01-20T03:06:29.855Z,62.20
2023-01-20T03:06:54.475Z,48.72
2023-01-20T03:07:17.246Z,59.13
2023-01-20T03:07:40.605Z,54.85
2023-01-20T03:08:05.453Z,56.33
2023-01-20T03:08:30.881Z,43.67
2023-01-20T03:08:53.977Z,46.25
2023-01-20T03:09:19.219Z,41.13
2023-01-20T03:09:44.532Z,34.15
2023-01-20T03:10:10.618Z,52.35
2023-01-20T03:10:33.970Z,37.10
2023-01-20T03:10:57.327Z,36.90
2023-01-20T03:11:20.101Z,33.40
2023-01-20T03:11:45.955Z,37.72
2023-01-20T03:12:11.918Z,36.90
2023-01-20T03:12:48.350Z,66.78
2023-01-20T03:13:13.882Z,75.07
2023-01-20T03:13:38.993Z,47.40
2023-01-20T03:14:05.348Z,44.78
2023-01-20T03:14:28.335Z,49.03
2023-01-20T03:14:52.348Z,47.45
2023-01-20T03:15:15.676Z,49.35
2023-01-20T03:15:42.464Z,45.33
2023-01-20T03:16:06.923Z,61.95
2023-01-20T03:16:29.749Z,56.90
2023-01-20T03:16:52.653Z,59.05
2023-01-20T03:17:15.374Z,59.13
2023-01-20T03:17:38.084Z,62.65
2023-01-20T03:18:02.381Z,64.82
2023-01-20T03:18:25.369Z,61.22
2023-01-20T03:18:48.223Z,110.25
2023-01-20T03:19:10.993Z,67.93
2023-01-20T03:19:33.933Z,59.53
2023-01-20T03:19:56.656Z,78.20
2023-01-20T03:20:19.448Z,59.10
2023-01-20T03:20:42.154Z,71.18
2023-01-20T03:21:05.359Z,54.22
2023-01-20T03:21:28.168Z,74.07
2023-01-20T03:21:50.949Z,58.40
2023-01-20T03:22:13.741Z,49.38
2023-01-20T03:22:36.826Z,67.70
2023-01-20T03:22:59.680Z,66.20
2023-01-20T03:23:22.456Z,98.25
2023-01-20T03:23:46.227Z,101.53
2023-01-20T03:24:09.304Z,124.65
2023-01-20T03:24:32.199Z,67.82
2023-01-20T03:24:54.890Z,183.40
2023-01-20T03:25:18.252Z,117.80
2023-01-20T03:25:41.276Z,52.80
2023-01-20T03:26:05.208Z,136.80
2023-01-20T03:26:28.264Z,162.05
2023-01-20T03:26:51.135Z,168.10
2023-01-20T03:27:13.927Z,174.77
2023-01-20T03:27:36.857Z,116.97
2023-01-20T03:27:59.619Z,138.68
2023-01-20T03:28:22.411Z,86.38
2023-01-20T03:28:45.583Z,69.78
2023-01-20T03:29:11.529Z,72.72
2023-01-20T03:29:34.832Z,58.75
2023-01-20T03:29:57.763Z,89.97
2023-01-20T03:30:21.640Z,52.63
2023-01-20T03:30:44.566Z,67.57
2023-01-20T03:31:13.450Z,74.13
2023-01-20T03:31:38.194Z,70.35
2023-01-20T03:32:02.135Z,48.00
2023-01-20T03:32:27.103Z,53.33
2023-01-20T03:32:49.852Z,44.45
2023-01-20T03:33:14.159Z,58.42
2023-01-20T03:33:36.944Z,77.38
2023-01-20T03:34:01.025Z,53.70
2023-01-20T03:34:24.718Z,41.05
2023-01-20T03:34:47.374Z,42.25
2023-01-20T03:35:13.324Z,47.50
2023-01-20T03:35:36.263Z,52.70
2023-01-20T03:35:59.044Z,56.47
2023-01-20T03:36:22.929Z,50.05
2023-01-20T03:36:45.789Z,44.60
2023-01-20T03:37:08.614Z,44.83
2023-01-20T03:37:31.381Z,50.92
2023-01-20T03:37:54.109Z,52.90
2023-01-20T03:38:16.811Z,51.53
2023-01-20T03:38:39.590Z,46.35
2023-01-20T03:39:02.546Z,57.15
2023-01-20T03:39:25.609Z,48.15
2023-01-20T03:39:51.769Z,47.75
2023-01-20T03:40:14.612Z,76.55
2023-01-20T03:40:40.678Z,84.50
2023-01-20T03:41:06.749Z,58.80
2023-01-20T03:41:35.064Z,51.00
2023-01-20T03:42:06.290Z,71.03
2023-01-20T03:42:30.474Z,159.73
2023-01-20T03:42:56.281Z,128.02
2023-01-20T03:43:23.376Z,107.35
2023-01-20T03:43:49.576Z,114.18
2023-01-20T03:44:14.525Z,134.05
2023-01-20T03:44:57.130Z,142.32
2023-01-20T03:45:23.716Z,62.13
2023-01-20T03:45:50.602Z,101.13
2023-01-20T03:46:17.654Z,66.10
2023-01-20T03:46:45.300Z,59.05
2023-01-20T03:47:10.478Z,65.35
2023-01-20T03:47:46.341Z,69.93
2023-01-20T03:48:12.635Z,41.95
2023-01-20T03:48:39.945Z,48.63
2023-01-20T03:49:07.240Z,53.92
2023-01-20T03:49:34.126Z,49.33
2023-01-20T03:49:59.358Z,49.85
2023-01-20T03:50:30.451Z,91.90
2023-01-20T03:50:55.416Z,87.38
2023-01-20T03:51:20.741Z,133.05
2023-01-20T03:51:47.304Z,49.40
2023-01-20T03:52:12.607Z,44.78
2023-01-20T03:52:48.121Z,49.00
2023-01-20T03:53:16.521Z,51.75
2023-01-20T03:53:45.546Z,81.93
2023-01-20T03:54:09.642Z,84.55
2023-01-20T03:54:35.477Z,87.82
2023-01-20T03:55:00.620Z,43.85
2023-01-20T03:55:25.227Z,47.33
2023-01-20T03:55:50.119Z,55.97
2023-01-20T03:56:15.045Z,49.65
2023-01-20T03:56:40.649Z,54.90
2023-01-20T03:57:07.015Z,63.47
2023-01-20T03:57:32.228Z,78.95
2023-01-20T03:57:55.870Z,77.10
2023-01-20T03:58:20.900Z,83.57
2023-01-20T03:58:44.816Z,46.25
2023-01-20T03:59:07.703Z,49.42
2023-01-20T03:59:31.406Z,56.08
2023-01-20T03:59:54.183Z,46.35
2023-01-20T04:00:18.588Z,40.95
2023-01-20T04:00:43.878Z,48.80
2023-01-20T04:01:14.961Z,56.70
2023-01-20T04:01:42.786Z,95.63
2023-01-20T04:02:06.878Z,58.38
2023-01-20T04:02:30.110Z,60.35
2023-01-20T04:02:53.979Z,66.75
2023-01-20T04:03:20.065Z,89.30
2023-01-20T04:03:45.985Z,56.47
2023-01-20T04:04:10.256Z,88.95
2023-01-20T04:04:33.459Z,52.35
2023-01-20T04:04:56.188Z,45.63
2023-01-20T04:05:19.087Z,53.00
2023-01-20T04:05:42.321Z,61.10
2023-01-20T04:06:06.099Z,64.00
2023-01-20T04:06:28.822Z,58.22
2023-01-20T04:06:53.982Z,64.15
2023-01-20T04:07:19.080Z,77.10
2023-01-20T04:07:41.895Z,51.10
2023-01-20T04:08:07.141Z,73.95
2023-01-20T04:08:32.081Z,63.15
2023-01-20T04:08:57.070Z,48.38
2023-01-20T04:09:23.134Z,92.18
2023-01-20T04:09:48.489Z,95.85
2023-01-20T04:10:15.081Z,87.22
2023-01-20T04:10:40.404Z,157.23
2023-01-20T04:11:05.215Z,189.15
2023-01-20T04:11:28.061Z,131.60
2023-01-20T04:11:50.963Z,85.70
2023-01-20T04:12:13.768Z,134.13
2023-01-20T04:12:36.652Z,128.00
2023-01-20T04:12:59.444Z,144.95
2023-01-20T04:13:22.175Z,107.28
2023-01-20T04:13:44.904Z,77.20
2023-01-20T04:14:09.152Z,59.28
2023-01-20T04:14:31.919Z,52.20
2023-01-20T04:14:54.646Z,58.00
2023-01-20T04:15:17.875Z,67.60
2023-01-20T04:15:44.641Z,98.93
2023-01-20T04:16:10.981Z,114.50
2023-01-20T04:16:33.783Z,90.40
2023-01-20T04:16:57.412Z,104.57
2023-01-20T04:17:20.175Z,71.78
2023-01-20T04:17:42.900Z,63.22
2023-01-20T04:18:13.354Z,68.57
2023-01-20T04:18:36.526Z,106.38
2023-01-20T04:19:00.767Z,136.55
2023-01-20T04:19:23.564Z,68.80
2023-01-20T04:19:46.429Z,59.22
2023-01-20T04:20:11.856Z,57.65
2023-01-20T04:20:34.725Z,53.70
2023-01-20T04:20:58.586Z,66.82
2023-01-20T04:21:24.194Z,60.97
2023-01-20T04:21:49.148Z,52.83
2023-01-20T04:22:16.413Z,47.97
2023-01-20T04:22:42.576Z,40.72
2023-01-20T04:23:05.389Z,43.55
2023-01-20T04:23:29.684Z,45.67
2023-01-20T04:23:54.912Z,42.67
2023-01-20T04:24:21.211Z,38.03
2023-01-20T04:24:45.142Z,53.08
2023-01-20T04:25:11.813Z,56.67
2023-01-20T04:25:34.884Z,59.90
2023-01-20T04:25:57.676Z,51.35
2023-01-20T04:26:20.497Z,54.10
2023-01-20T04:26:43.376Z,55.67
2023-01-20T04:27:06.163Z,47.65
2023-01-20T04:27:29.180Z,46.97
2023-01-20T04:27:51.916Z,47.17
2023-01-20T04:28:14.673Z,42.42
2023-01-20T04:28:37.453Z,34.92
2023-01-20T04:29:00.333Z,37.63
2023-01-20T04:29:23.094Z,38.83
2023-01-20T04:29:46.935Z,35.58
2023-01-20T04:30:12.379Z,36.42
2023-01-20T04:30:35.191Z,37.20
2023-01-20T04:30:58.055Z,34.13
2023-01-20T04:31:30.178Z,47.08
2023-01-20T04:31:59.429Z,40.15
2023-01-20T04:32:22.385Z,41.30
2023-01-20T04:32:45.226Z,35.05
2023-01-20T04:33:08.177Z,37.22
2023-01-20T04:33:30.969Z,40.08
2023-01-20T04:33:53.778Z,45.97
2023-01-20T04:34:18.052Z,38.67
2023-01-20T04:34:40.834Z,32.83
2023-01-20T04:35:03.625Z,34.40
2023-01-20T04:35:26.564Z,33.92
2023-01-20T04:35:49.366Z,29.85
2023-01-20T04:36:12.097Z,33.83
2023-01-20T04:36:34.813Z,32.63
2023-01-20T04:36:57.611Z,35.70
2023-01-20T04:37:20.501Z,37.78
2023-01-20T04:37:43.248Z,42.42
2023-01-20T04:38:06.793Z,39.47
2023-01-20T04:38:29.615Z,33.63
2023-01-20T04:38:52.437Z,27.88
2023-01-20T04:39:15.304Z,33.20
2023-01-20T04:39:38.089Z,38.35
2023-01-20T04:40:00.858Z,39.30
2023-01-20T04:40:23.726Z,32.70
2023-01-20T04:40:46.511Z,37.00
2023-01-20T04:41:11.561Z,39.75
2023-01-20T04:41:34.404Z,45.35
2023-01-20T04:41:57.254Z,42.53
2023-01-20T04:42:20.036Z,34.10
2023-01-20T04:42:42.748Z,34.85
2023-01-20T04:43:05.630Z,34.30
2023-01-20T04:43:28.392Z,29.00
2023-01-20T04:43:51.227Z,31.77
2023-01-20T04:44:14.000Z,35.33
2023-01-20T04:44:36.757Z,35.60
2023-01-20T04:44:59.674Z,35.28
2023-01-20T04:45:22.437Z,38.70
2023-01-20T04:45:45.167Z,36.80
2023-01-20T04:46:07.935Z,37.88
2023-01-20T04:46:30.860Z,39.45
2023-01-20T04:46:57.135Z,41.47
2023-01-20T04:47:19.893Z,43.22
2023-01-20T04:47:42.689Z,30.38
2023-01-20T04:48:07.566Z,37.55
2023-01-20T04:48:30.389Z,43.58
2023-01-20T04:48:53.145Z,47.97
2023-01-20T04:49:17.406Z,40.30
2023-01-20T04:49:40.295Z,36.58
2023-01-20T04:50:03.053Z,35.47
2023-01-20T04:50:25.802Z,35.13
2023-01-20T04:50:49.634Z,33.35
2023-01-20T04:51:12.469Z,30.58
2023-01-20T04:51:35.309Z,30.90
2023-01-20T04:51:58.202Z,28.40
2023-01-20T04:52:20.986Z,36.40
2023-01-20T04:52:44.017Z,35.00
2023-01-20T04:53:06.724Z,32.60
2023-01-20T04:53:29.449Z,34.50
2023-01-20T04:53:56.296Z,34.42
2023-01-20T04:54:20.177Z,30.90
2023-01-20T04:54:42.997Z,29.40
2023-01-20T04:55:06.411Z,32.92
2023-01-20T04:55:29.171Z,35.55
2023-01-20T04:55:51.888Z,39.55
2023-01-20T04:56:15.264Z,40.42
2023-01-20T04:56:38.089Z,38.50
2023-01-20T04:57:00.876Z,32.65
2023-01-20T04:57:23.675Z,33.22
2023-01-20T04:57:48.037Z,35.63
2023-01-20T04:58:10.824Z,30.83
2023-01-20T04:58:33.718Z,32.97
2023-01-20T04:58:56.417Z,36.65
2023-01-20T04:59:19.231Z,46.58
2023-01-20T04:59:42.523Z,41.00
2023-01-20T05:00:06.736Z,42.13
2023-01-20T05:00:29.630Z,44.88
2023-01-20T05:00:52.379Z,38.70
2023-01-20T05:01:15.212Z,31.25
2023-01-20T05:01:38.316Z,40.42
2023-01-20T05:02:01.591Z,35.00
2023-01-20T05:02:24.649Z,34.42
2023-01-20T05:02:47.575Z,39.30
2023-01-20T05:03:10.491Z,37.05
2023-01-20T05:03:33.349Z,56.88
2023-01-20T05:03:56.255Z,78.20
2023-01-20T05:04:20.656Z,30.52
2023-01-20T05:04:43.428Z,34.15
2023-01-20T05:05:06.758Z,38.67
2023-01-20T05:05:29.597Z,34.58
2023-01-20T05:05:53.998Z,52.20
2023-01-20T05:06:19.353Z,46.80
2023-01-20T05:06:43.529Z,35.42
2023-01-20T05:07:06.342Z,37.25
2023-01-20T05:07:29.116Z,54.33
2023-01-20T05:07:53.522Z,42.67
2023-01-20T05:08:16.313Z,44.88
2023-01-20T05:08:39.215Z,39.03
2023-01-20T05:09:02.074Z,44.53
2023-01-20T05:09:24.817Z,52.88
2023-01-20T05:09:47.559Z,45.55
2023-01-20T05:10:13.154Z,48.53
2023-01-20T05:10:36.609Z,41.58
2023-01-20T05:10:59.427Z,39.03
2023-01-20T05:11:22.223Z,43.97
2023-01-20T05:11:45.152Z,38.70
2023-01-20T05:12:07.968Z,40.58
2023-01-20T05:12:30.702Z,48.60
2023-01-20T05:12:53.450Z,76.53